Time,TemperatureF,DewpointF,PressureIn,WindDirection,WindDirectionDegrees,WindSpeedMPH,WindSpeedGustMPH,Humidity,HourlyPrecipIn,Conditions,Clouds,dailyrainin,SoftwareType,DateUTC
2013-10-16 00:00:00,52.0,47.0,0.00,SE,135,1.0,3.0,83,0.00,,,0.00,Weather View 32 v70,2013-10-16 04:00:00,
2013-10-16 00:01:00,52.0,47.0,0.00,SE,135,1.0,3.0,83,0.00,,,0.00,Weather View 32 v70,2013-10-16 04:01:00,
2013-10-16 00:02:00,51.9,46.9,0.00,SE,135,1.0,3.0,83,0.00,,,0.00,Weather View 32 v70,2013-10-16 04:02:00,
2013-10-16 00:07:00,51.8,46.8,0.00,SSE,157,0.0,3.0,83,0.00,,,0.00,Weather View 32 v70,2013-10-16 04:07:00,
2013-10-16 00:12:00,51.6,46.6,0.00,SSE,157,0.0,3.0,83,0.00,,,0.00,Weather View 32 v70,2013-10-16 04:12:00,
2013-10-16 00:17:00,51.4,46.7,0.00,SE,135,2.0,3.0,84,0.00,,,0.00,Weather View 32 v70,2013-10-16 04:17:00,
2013-10-16 00:22:00,51.2,46.6,0.00,SE,135,0.0,3.0,84,0.00,,,0.00,Weather View 32 v70,2013-10-16 04:22:00,
2013-10-16 00:27:00,51.1,46.5,0.00,SSE,157,1.0,3.0,84,0.00,,,0.00,Weather View 32 v70,2013-10-16 04:27:00,
2013-10-16 00:32:00,51.0,46.7,0.00,NE,45,2.0,3.0,85,0.00,,,0.00,Weather View 32 v70,2013-10-16 04:32:00,
2013-10-16 00:37:00,51.0,46.7,0.00,SSE,157,2.0,3.0,85,0.00,,,0.00,Weather View 32 v70,2013-10-16 04:37:00,
2013-10-16 00:42:00,51.0,46.7,0.00,East,90,1.0,3.0,85,0.00,,,0.00,Weather View 32 v70,2013-10-16 04:42:00,
2013-10-16 00:47:00,50.9,46.5,0.00,South,180,1.0,3.0,85,0.00,,,0.00,Weather View 32 v70,2013-10-16 04:47:00,
2013-10-16 00:52:00,50.8,46.7,0.00,SE,135,1.0,3.0,86,0.00,,,0.00,Weather View 32 v70,2013-10-16 04:52:00,
2013-10-16 00:57:00,50.9,46.9,0.00,East,90,2.0,3.0,86,0.00,,,0.00,Weather View 32 v70,2013-10-16 04:57:00,
2013-10-16 01:02:00,50.7,46.6,0.00,NE,45,1.0,3.0,86,0.00,,,0.00,Weather View 32 v70,2013-10-16 05:02:00,
2013-10-16 01:07:00,50.7,46.6,0.00,ENE,67,2.0,3.0,86,0.00,,,0.00,Weather View 32 v70,2013-10-16 05:07:00,
2013-10-16 01:12:00,50.7,46.6,0.00,NNE,22,3.0,3.0,86,0.00,,,0.00,Weather View 32 v70,2013-10-16 05:12:00,
2013-10-16 01:17:00,50.7,46.6,0.00,North,0,3.0,4.0,86,0.00,,,0.00,Weather View 32 v70,2013-10-16 05:17:00,
2013-10-16 01:22:00,50.6,46.5,0.00,East,90,0.0,4.0,86,0.00,,,0.00,Weather View 32 v70,2013-10-16 05:22:00,
2013-10-16 01:27:00,50.5,46.4,0.00,NE,45,2.0,4.0,86,0.00,,,0.00,Weather View 32 v70,2013-10-16 05:27:00,
2013-10-16 01:32:00,50.6,46.5,0.00,NE,45,2.0,4.0,86,0.00,,,0.00,Weather View 32 v70,2013-10-16 05:32:00,
2013-10-16 01:37:00,50.5,46.4,0.00,NNE,22,2.0,4.0,86,0.00,,,0.00,Weather View 32 v70,2013-10-16 05:37:00,
2013-10-16 01:42:00,50.2,46.2,0.00,ENE,67,2.0,4.0,86,0.00,,,0.00,Weather View 32 v70,2013-10-16 05:42:00,
2013-10-16 01:47:00,50.0,46.0,0.00,SE,135,1.0,4.0,86,0.00,,,0.00,Weather View 32 v70,2013-10-16 05:47:00,
2013-10-16 01:52:00,49.8,45.8,0.00,NE,45,2.0,4.0,86,0.00,,,0.00,Weather View 32 v70,2013-10-16 05:52:00,
2013-10-16 01:57:00,49.8,46.1,0.00,ENE,67,1.0,4.0,87,0.00,,,0.00,Weather View 32 v70,2013-10-16 05:57:00,
2013-10-16 02:02:00,49.6,45.8,0.00,SE,135,1.0,4.0,87,0.00,,,0.00,Weather View 32 v70,2013-10-16 06:02:00,
2013-10-16 02:07:00,49.6,46.1,0.00,ESE,112,1.0,4.0,88,0.00,,,0.00,Weather View 32 v70,2013-10-16 06:07:00,
2013-10-16 02:12:00,49.6,46.1,0.00,SSE,157,1.0,4.0,88,0.00,,,0.00,Weather View 32 v70,2013-10-16 06:12:00,
2013-10-16 02:17:00,49.3,46.2,0.00,SE,135,1.0,3.0,89,0.00,,,0.00,Weather View 32 v70,2013-10-16 06:17:00,
2013-10-16 02:22:00,49.2,46.1,0.00,South,180,0.0,3.0,89,0.00,,,0.00,Weather View 32 v70,2013-10-16 06:22:00,
2013-10-16 02:27:00,49.0,45.9,0.00,South,180,0.0,3.0,89,0.00,,,0.00,Weather View 32 v70,2013-10-16 06:27:00,
2013-10-16 02:32:00,49.1,46.3,0.00,ESE,112,1.0,2.0,90,0.00,,,0.00,Weather View 32 v70,2013-10-16 06:32:00,
2013-10-16 02:37:00,49.3,46.5,0.00,SE,135,1.0,2.0,90,0.00,,,0.00,Weather View 32 v70,2013-10-16 06:37:00,
2013-10-16 02:42:00,49.4,46.6,0.00,SSE,157,0.0,2.0,90,0.00,,,0.00,Weather View 32 v70,2013-10-16 06:42:00,
2013-10-16 02:47:00,49.4,46.6,0.00,SSE,157,0.0,2.0,90,0.00,,,0.00,Weather View 32 v70,2013-10-16 06:47:00,
2013-10-16 02:52:00,49.3,46.5,0.00,SE,135,1.0,2.0,90,0.00,,,0.00,Weather View 32 v70,2013-10-16 06:52:00,
2013-10-16 02:57:00,49.4,46.6,0.00,SE,135,1.0,2.0,90,0.00,,,0.00,Weather View 32 v70,2013-10-16 06:57:00,
2013-10-16 03:02:00,49.4,46.6,0.00,SE,135,1.0,2.0,90,0.00,,,0.00,Weather View 32 v70,2013-10-16 07:02:00,
2013-10-16 03:07:00,49.6,46.7,0.00,SE,135,1.0,3.0,90,0.00,,,0.00,Weather View 32 v70,2013-10-16 07:07:00,
2013-10-16 03:10:00,49.6,46.7,0.00,SE,135,2.0,3.0,90,0.00,,,0.00,Weather View 32 v70,2013-10-16 07:10:00,
2013-10-16 03:18:00,49.6,46.7,0.00,NE,45,2.0,3.0,90,0.00,,,0.00,Weather View 32 v70,2013-10-16 07:18:00,
2013-10-16 03:23:00,49.6,46.7,0.00,SSE,157,0.0,3.0,90,0.00,,,0.00,Weather View 32 v70,2013-10-16 07:23:00,
2013-10-16 03:28:00,49.3,46.2,0.00,SSE,157,0.0,3.0,89,0.00,,,0.00,Weather View 32 v70,2013-10-16 07:28:00,
2013-10-16 03:33:00,49.2,46.1,0.00,SSE,157,0.0,3.0,89,0.00,,,0.00,Weather View 32 v70,2013-10-16 07:33:00,
2013-10-16 03:38:00,49.1,46.0,0.00,South,180,0.0,3.0,89,0.00,,,0.00,Weather View 32 v70,2013-10-16 07:38:00,
2013-10-16 03:43:00,48.9,46.1,0.00,SSE,157,0.0,3.0,90,0.00,,,0.00,Weather View 32 v70,2013-10-16 07:43:00,
2013-10-16 03:48:00,48.9,46.1,0.00,SSE,157,0.0,3.0,90,0.00,,,0.00,Weather View 32 v70,2013-10-16 07:48:00,
2013-10-16 03:53:00,48.8,46.0,0.00,SSE,157,0.0,3.0,90,0.00,,,0.00,Weather View 32 v70,2013-10-16 07:53:00,
2013-10-16 03:58:00,48.9,46.1,0.00,SE,135,1.0,3.0,90,0.00,,,0.00,Weather View 32 v70,2013-10-16 07:58:00,
2013-10-16 04:03:00,49.0,46.5,0.00,SSE,157,0.0,3.0,91,0.00,,,0.00,Weather View 32 v70,2013-10-16 08:03:00,
2013-10-16 04:08:00,49.0,46.5,0.00,SE,135,0.0,3.0,91,0.00,,,0.00,Weather View 32 v70,2013-10-16 08:08:00,
2013-10-16 04:13:00,49.1,46.6,0.00,SE,135,1.0,3.0,91,0.00,,,0.00,Weather View 32 v70,2013-10-16 08:13:00,
2013-10-16 04:18:00,49.0,46.2,0.00,SSE,157,0.0,2.0,90,0.00,,,0.00,Weather View 32 v70,2013-10-16 08:18:00,
2013-10-16 04:23:00,49.0,46.2,0.00,East,90,2.0,2.0,90,0.00,,,0.00,Weather View 32 v70,2013-10-16 08:23:00,
2013-10-16 04:28:00,49.2,46.7,0.00,ENE,67,2.0,3.0,91,0.00,,,0.00,Weather View 32 v70,2013-10-16 08:28:00,
2013-10-16 04:33:00,49.3,46.8,0.00,ESE,112,2.0,3.0,91,0.00,,,0.00,Weather View 32 v70,2013-10-16 08:33:00,
2013-10-16 04:38:00,49.4,46.6,0.00,ENE,67,2.0,4.0,90,0.00,,,0.00,Weather View 32 v70,2013-10-16 08:38:00,
2013-10-16 04:43:00,49.4,46.6,0.00,NE,45,2.0,4.0,90,0.00,,,0.00,Weather View 32 v70,2013-10-16 08:43:00,
2013-10-16 04:48:00,49.4,46.6,0.00,NNE,22,2.0,4.0,90,0.00,,,0.00,Weather View 32 v70,2013-10-16 08:48:00,
2013-10-16 04:53:00,49.6,46.7,0.00,SSE,157,1.0,4.0,90,0.00,,,0.00,Weather View 32 v70,2013-10-16 08:53:00,
2013-10-16 04:58:00,49.4,46.3,0.00,South,180,0.0,4.0,89,0.00,,,0.00,Weather View 32 v70,2013-10-16 08:58:00,
2013-10-16 05:03:00,49.3,46.2,0.00,SSE,157,0.0,4.0,89,0.00,,,0.00,Weather View 32 v70,2013-10-16 09:03:00,
2013-10-16 05:08:00,49.2,46.1,0.00,SE,135,0.0,4.0,89,0.00,,,0.00,Weather View 32 v70,2013-10-16 09:08:00,
2013-10-16 05:13:00,49.2,46.4,0.00,SE,135,0.0,4.0,90,0.00,,,0.00,Weather View 32 v70,2013-10-16 09:13:00,
2013-10-16 05:18:00,49.2,46.4,0.00,SE,135,0.0,4.0,90,0.00,,,0.00,Weather View 32 v70,2013-10-16 09:18:00,
2013-10-16 05:23:00,49.3,46.5,0.00,SE,135,0.0,4.0,90,0.00,,,0.00,Weather View 32 v70,2013-10-16 09:23:00,
2013-10-16 05:28:00,49.3,46.5,0.00,SE,135,1.0,4.0,90,0.00,,,0.00,Weather View 32 v70,2013-10-16 09:28:00,
2013-10-16 05:33:00,49.4,46.6,0.00,SW,225,1.0,4.0,90,0.00,,,0.00,Weather View 32 v70,2013-10-16 09:33:00,
2013-10-16 05:38:00,49.4,46.3,0.00,SSE,157,0.0,4.0,89,0.00,,,0.00,Weather View 32 v70,2013-10-16 09:38:00,
2013-10-16 05:43:00,49.4,46.3,0.00,SSE,157,0.0,4.0,89,0.00,,,0.00,Weather View 32 v70,2013-10-16 09:43:00,
2013-10-16 05:48:00,49.3,46.2,0.00,South,180,0.0,4.0,89,0.00,,,0.00,Weather View 32 v70,2013-10-16 09:48:00,
2013-10-16 05:53:00,49.3,46.2,0.00,SE,135,0.0,3.0,89,0.00,,,0.00,Weather View 32 v70,2013-10-16 09:53:00,
2013-10-16 05:58:00,49.3,46.2,0.00,NW,315,2.0,3.0,89,0.00,,,0.00,Weather View 32 v70,2013-10-16 09:58:00,
2013-10-16 06:03:00,49.2,46.1,0.00,South,180,0.0,3.0,89,0.00,,,0.00,Weather View 32 v70,2013-10-16 10:03:00,
2013-10-16 06:08:00,49.0,45.9,0.00,South,180,0.0,3.0,89,0.00,,,0.00,Weather View 32 v70,2013-10-16 10:08:00,
2013-10-16 06:13:00,48.9,45.8,0.00,SE,135,0.0,3.0,89,0.00,,,0.00,Weather View 32 v70,2013-10-16 10:13:00,
2013-10-16 06:18:00,48.8,45.7,0.00,SSE,157,0.0,3.0,89,0.00,,,0.00,Weather View 32 v70,2013-10-16 10:18:00,
2013-10-16 06:23:00,48.5,45.7,0.00,SSE,157,0.0,3.0,90,0.00,,,0.00,Weather View 32 v70,2013-10-16 10:23:00,
2013-10-16 06:28:00,48.5,45.7,0.00,SE,135,0.0,3.0,90,0.00,,,0.00,Weather View 32 v70,2013-10-16 10:28:00,
2013-10-16 06:33:00,48.5,45.7,0.00,SE,135,0.0,2.0,90,0.00,,,0.00,Weather View 32 v70,2013-10-16 10:33:00,
2013-10-16 06:38:00,48.7,45.8,0.00,East,90,1.0,2.0,90,0.00,,,0.00,Weather View 32 v70,2013-10-16 10:38:00,
2013-10-16 06:43:00,49.0,46.2,0.00,SE,135,1.0,3.0,90,0.00,,,0.00,Weather View 32 v70,2013-10-16 10:43:00,
2013-10-16 06:48:00,49.1,46.3,0.00,SE,135,1.0,3.0,90,0.00,,,0.00,Weather View 32 v70,2013-10-16 10:48:00,
2013-10-16 06:53:00,49.2,46.4,0.00,SE,135,1.0,3.0,90,0.00,,,0.00,Weather View 32 v70,2013-10-16 10:53:00,
2013-10-16 06:58:00,49.3,46.5,0.00,SSE,157,0.0,3.0,90,0.00,,,0.00,Weather View 32 v70,2013-10-16 10:58:00,
2013-10-16 07:03:00,49.3,46.5,0.00,SE,135,0.0,3.0,90,0.00,,,0.00,Weather View 32 v70,2013-10-16 11:03:00,
2013-10-16 07:08:00,49.4,46.6,0.00,ESE,112,0.0,3.0,90,0.00,,,0.00,Weather View 32 v70,2013-10-16 11:08:00,
2013-10-16 07:13:00,49.6,46.7,0.00,South,180,1.0,3.0,90,0.00,,,0.00,Weather View 32 v70,2013-10-16 11:13:00,
2013-10-16 07:18:00,49.7,46.5,0.00,East,90,2.0,3.0,89,0.00,,,0.00,Weather View 32 v70,2013-10-16 11:18:00,
2013-10-16 07:23:00,49.8,46.7,0.00,NE,45,3.0,3.0,89,0.00,,,0.00,Weather View 32 v70,2013-10-16 11:23:00,
2013-10-16 07:28:00,49.9,46.8,0.00,East,90,1.0,3.0,89,0.00,,,0.00,Weather View 32 v70,2013-10-16 11:28:00,
2013-10-16 07:33:00,49.9,46.8,0.00,SSE,157,0.0,3.0,89,0.00,,,0.00,Weather View 32 v70,2013-10-16 11:33:00,
2013-10-16 07:38:00,49.8,46.4,0.00,SE,135,0.0,3.0,88,0.00,,,0.00,Weather View 32 v70,2013-10-16 11:38:00,
2013-10-16 07:43:00,49.9,46.5,0.00,SSE,157,1.0,3.0,88,0.00,,,0.00,Weather View 32 v70,2013-10-16 11:43:00,
2013-10-16 07:48:00,49.9,46.8,0.00,South,180,0.0,3.0,89,0.00,,,0.00,Weather View 32 v70,2013-10-16 11:48:00,
2013-10-16 07:53:00,50.0,46.9,0.00,SSE,157,0.0,3.0,89,0.00,,,0.00,Weather View 32 v70,2013-10-16 11:53:00,
2013-10-16 07:58:00,50.2,46.8,0.00,NE,45,2.0,3.0,88,0.00,,,0.00,Weather View 32 v70,2013-10-16 11:58:00,
2013-10-16 08:03:00,50.5,47.0,0.00,NE,45,2.0,4.0,88,0.00,,,0.00,Weather View 32 v70,2013-10-16 12:03:00,
2013-10-16 08:08:00,50.8,47.4,0.00,NE,45,3.0,4.0,88,0.00,,,0.00,Weather View 32 v70,2013-10-16 12:08:00,
2013-10-16 08:13:00,51.2,47.8,0.00,South,180,1.0,4.0,88,0.00,,,0.00,Weather View 32 v70,2013-10-16 12:13:00,
2013-10-16 08:18:00,51.7,47.9,0.00,NW,315,0.0,4.0,87,0.00,,,0.00,Weather View 32 v70,2013-10-16 12:18:00,
2013-10-16 08:23:00,52.1,48.1,0.00,South,180,0.0,4.0,86,0.00,,,0.00,Weather View 32 v70,2013-10-16 12:23:00,
2013-10-16 08:28:00,52.6,48.5,0.00,SE,135,2.0,4.0,86,0.00,,,0.00,Weather View 32 v70,2013-10-16 12:28:00,
2013-10-16 08:33:00,52.9,48.5,0.00,NE,45,2.0,5.0,85,0.00,,,0.00,Weather View 32 v70,2013-10-16 12:33:00,
2013-10-16 08:38:00,53.4,48.7,0.00,North,0,4.0,5.0,84,0.00,,,0.00,Weather View 32 v70,2013-10-16 12:38:00,
2013-10-16 08:43:00,53.5,48.4,0.00,SSE,157,3.0,5.0,83,0.00,,,0.00,Weather View 32 v70,2013-10-16 12:43:00,
2013-10-16 08:48:00,53.6,48.6,0.00,NW,315,2.0,6.0,83,0.00,,,0.00,Weather View 32 v70,2013-10-16 12:48:00,
2013-10-16 08:53:00,53.6,48.2,0.00,SSW,202,2.0,6.0,82,0.00,,,0.00,Weather View 32 v70,2013-10-16 12:53:00,
2013-10-16 08:58:00,53.7,48.0,0.00,ENE,67,3.0,6.0,81,0.00,,,0.00,Weather View 32 v70,2013-10-16 12:58:00,
2013-10-16 09:03:00,53.7,48.0,0.00,East,90,4.0,7.0,81,0.00,,,0.00,Weather View 32 v70,2013-10-16 13:03:00,
2013-10-16 09:08:00,53.7,48.0,0.00,NW,315,3.0,7.0,81,0.00,,,0.00,Weather View 32 v70,2013-10-16 13:08:00,
2013-10-16 09:13:00,53.7,48.0,0.00,NE,45,2.0,7.0,81,0.00,,,0.00,Weather View 32 v70,2013-10-16 13:13:00,
2013-10-16 09:18:00,53.8,47.8,0.00,SE,135,1.0,7.0,80,0.00,,,0.00,Weather View 32 v70,2013-10-16 13:18:00,
2013-10-16 09:23:00,53.8,47.8,0.00,NNW,337,5.0,7.0,80,0.00,,,0.00,Weather View 32 v70,2013-10-16 13:23:00,
2013-10-16 09:28:00,53.9,47.9,0.00,SSE,157,2.0,7.0,80,0.00,,,0.00,Weather View 32 v70,2013-10-16 13:28:00,
2013-10-16 09:33:00,54.1,48.0,0.00,SE,135,2.0,7.0,80,0.00,,,0.00,Weather View 32 v70,2013-10-16 13:33:00,
2013-10-16 09:38:00,54.2,47.8,0.00,SE,135,2.0,7.0,79,0.00,,,0.00,Weather View 32 v70,2013-10-16 13:38:00,
2013-10-16 09:43:00,54.3,47.9,0.00,SE,135,1.0,7.0,79,0.00,,,0.00,Weather View 32 v70,2013-10-16 13:43:00,
2013-10-16 09:48:00,54.4,48.0,0.00,North,0,3.0,7.0,79,0.00,,,0.00,Weather View 32 v70,2013-10-16 13:48:00,
2013-10-16 09:53:00,54.5,48.1,0.00,West,270,2.0,7.0,79,0.00,,,0.00,Weather View 32 v70,2013-10-16 13:53:00,
2013-10-16 09:58:00,54.6,48.2,0.00,ESE,112,2.0,7.0,79,0.00,,,0.00,Weather View 32 v70,2013-10-16 13:58:00,
2013-10-16 10:03:00,54.7,48.0,0.00,ENE,67,2.0,7.0,78,0.00,,,0.00,Weather View 32 v70,2013-10-16 14:03:00,
2013-10-16 10:08:00,54.6,47.9,0.00,SE,135,1.0,7.0,78,0.00,,,0.00,Weather View 32 v70,2013-10-16 14:08:00,
2013-10-16 10:13:00,54.6,47.5,0.00,South,180,0.0,7.0,77,0.00,,,0.00,Weather View 32 v70,2013-10-16 14:13:00,
2013-10-16 10:18:00,54.7,47.6,0.00,NW,315,5.0,7.0,77,0.00,,,0.00,Weather View 32 v70,2013-10-16 14:18:00,
2013-10-16 10:23:00,54.8,47.8,0.00,SE,135,1.0,7.0,77,0.00,,,0.00,Weather View 32 v70,2013-10-16 14:23:00,
2013-10-16 10:28:00,55.0,47.9,0.00,SW,225,2.0,5.0,77,0.00,,,0.00,Weather View 32 v70,2013-10-16 14:28:00,
2013-10-16 10:33:00,55.1,48.0,0.00,East,90,1.0,5.0,77,0.00,,,0.00,Weather View 32 v70,2013-10-16 14:33:00,
2013-10-16 10:38:00,55.2,48.1,0.00,South,180,1.0,5.0,77,0.00,,,0.00,Weather View 32 v70,2013-10-16 14:38:00,
2013-10-16 10:43:00,55.4,47.9,0.00,SSE,157,0.0,5.0,76,0.00,,,0.00,Weather View 32 v70,2013-10-16 14:43:00,
2013-10-16 10:48:00,55.6,48.2,0.00,SE,135,1.0,5.0,76,0.00,,,0.00,Weather View 32 v70,2013-10-16 14:48:00,
2013-10-16 10:53:00,55.9,48.4,0.00,SE,135,2.0,5.0,76,0.00,,,0.00,Weather View 32 v70,2013-10-16 14:53:00,
2013-10-16 10:58:00,56.1,48.2,0.00,West,270,3.0,7.0,75,0.00,,,0.00,Weather View 32 v70,2013-10-16 14:58:00,
2013-10-16 11:03:00,56.4,48.6,0.00,NNE,22,4.0,7.0,75,0.00,,,0.00,Weather View 32 v70,2013-10-16 15:03:00,
2013-10-16 11:08:00,56.6,48.1,0.00,South,180,2.0,7.0,73,0.00,,,0.00,Weather View 32 v70,2013-10-16 15:08:00,
2013-10-16 11:13:00,56.9,47.9,0.00,South,180,1.0,7.0,72,0.00,,,0.00,Weather View 32 v70,2013-10-16 15:13:00,
2013-10-16 11:18:00,57.1,48.1,0.00,SE,135,0.0,7.0,72,0.00,,,0.00,Weather View 32 v70,2013-10-16 15:18:00,
2013-10-16 11:29:00,57.2,48.2,0.00,South,180,4.0,7.0,72,0.00,,,0.00,Weather View 32 v70,2013-10-16 15:29:00,
2013-10-16 11:34:00,58.3,47.4,0.00,NE,45,2.0,7.0,67,0.00,,,0.00,Weather View 32 v70,2013-10-16 15:34:00,
2013-10-16 11:39:00,58.7,48.1,0.00,South,180,2.0,7.0,68,0.00,,,0.00,Weather View 32 v70,2013-10-16 15:39:00,
2013-10-16 11:44:00,58.9,47.9,0.00,NNE,22,6.0,7.0,67,0.00,,,0.00,Weather View 32 v70,2013-10-16 15:44:00,
2013-10-16 11:49:00,59.0,48.0,0.00,East,90,4.0,7.0,67,0.00,,,0.00,Weather View 32 v70,2013-10-16 15:49:00,
2013-10-16 11:54:00,58.9,47.5,0.00,ESE,112,1.0,7.0,66,0.00,,,0.00,Weather View 32 v70,2013-10-16 15:54:00,
2013-10-16 11:59:00,58.9,47.5,0.00,South,180,1.0,6.0,66,0.00,,,0.00,Weather View 32 v70,2013-10-16 15:59:00,
2013-10-16 12:04:00,58.9,47.5,0.00,South,180,1.0,6.0,66,0.00,,,0.00,Weather View 32 v70,2013-10-16 16:04:00,
2013-10-16 12:09:00,59.1,47.7,0.00,SW,225,1.0,6.0,66,0.00,,,0.00,Weather View 32 v70,2013-10-16 16:09:00,
2013-10-16 12:14:00,59.3,47.1,0.00,NNW,337,2.0,6.0,64,0.00,,,0.00,Weather View 32 v70,2013-10-16 16:14:00,
2013-10-16 12:19:00,60.0,47.3,0.00,NW,315,3.0,6.0,63,0.00,,,0.00,Weather View 32 v70,2013-10-16 16:19:00,
2013-10-16 12:24:00,60.8,48.1,0.00,SE,135,4.0,6.0,63,0.00,,,0.00,Weather View 32 v70,2013-10-16 16:24:00,
2013-10-16 12:29:00,61.0,47.0,0.00,North,0,5.0,6.0,60,0.00,,,0.00,Weather View 32 v70,2013-10-16 16:29:00,
2013-10-16 12:34:00,61.4,46.9,0.00,NW,315,2.0,6.0,59,0.00,,,0.00,Weather View 32 v70,2013-10-16 16:34:00,
2013-10-16 12:39:00,61.6,46.2,0.00,East,90,2.0,6.0,57,0.00,,,0.00,Weather View 32 v70,2013-10-16 16:39:00,
2013-10-16 12:44:00,61.6,46.2,0.00,South,180,1.0,7.0,57,0.00,,,0.00,Weather View 32 v70,2013-10-16 16:44:00,
2013-10-16 12:49:00,61.7,46.7,0.00,NE,45,1.0,7.0,58,0.00,,,0.00,Weather View 32 v70,2013-10-16 16:49:00,
2013-10-16 12:54:00,61.7,46.3,0.00,North,0,3.0,7.0,57,0.00,,,0.00,Weather View 32 v70,2013-10-16 16:54:00,
2013-10-16 12:59:00,61.6,45.7,0.00,SE,135,2.0,7.0,56,0.00,,,0.00,Weather View 32 v70,2013-10-16 16:59:00,
2013-10-16 13:04:00,61.7,45.8,0.00,NE,45,0.0,7.0,56,0.00,,,0.00,Weather View 32 v70,2013-10-16 17:04:00,
2013-10-16 13:09:00,62.0,45.6,0.00,SW,225,2.0,7.0,55,0.00,,,0.00,Weather View 32 v70,2013-10-16 17:09:00,
2013-10-16 13:14:00,62.5,45.6,0.00,East,90,2.0,7.0,54,0.00,,,0.00,Weather View 32 v70,2013-10-16 17:14:00,
2013-10-16 13:19:00,62.6,45.2,0.00,SE,135,2.0,7.0,53,0.00,,,0.00,Weather View 32 v70,2013-10-16 17:19:00,
2013-10-16 13:24:00,62.6,45.2,0.00,West,270,4.0,7.0,53,0.00,,,0.00,Weather View 32 v70,2013-10-16 17:24:00,
2013-10-16 13:29:00,62.3,44.9,0.00,WNW,292,6.0,7.0,53,0.00,,,0.00,Weather View 32 v70,2013-10-16 17:29:00,
2013-10-16 13:34:00,62.3,43.9,0.00,SSW,202,3.0,7.0,51,0.00,,,0.00,Weather View 32 v70,2013-10-16 17:34:00,
2013-10-16 13:39:00,62.4,45.5,0.00,South,180,0.0,7.0,54,0.00,,,0.00,Weather View 32 v70,2013-10-16 17:39:00,
2013-10-16 13:44:00,62.4,44.0,0.00,South,180,1.0,7.0,51,0.00,,,0.00,Weather View 32 v70,2013-10-16 17:44:00,
2013-10-16 13:49:00,62.6,44.2,0.00,SSE,157,2.0,7.0,51,0.00,,,0.00,Weather View 32 v70,2013-10-16 17:49:00,
2013-10-16 13:54:00,62.8,43.9,0.00,East,90,3.0,7.0,50,0.00,,,0.00,Weather View 32 v70,2013-10-16 17:54:00,
2013-10-16 13:59:00,62.8,43.3,0.00,South,180,1.0,7.0,49,0.00,,,0.00,Weather View 32 v70,2013-10-16 17:59:00,
2013-10-16 14:04:00,62.9,44.0,0.00,SE,135,1.0,7.0,50,0.00,,,0.00,Weather View 32 v70,2013-10-16 18:04:00,
2013-10-16 14:09:00,62.5,43.0,0.00,SE,135,3.0,7.0,49,0.00,,,0.00,Weather View 32 v70,2013-10-16 18:09:00,
2013-10-16 14:14:00,62.4,43.5,0.00,NNE,22,4.0,7.0,50,0.00,,,0.00,Weather View 32 v70,2013-10-16 18:14:00,
2013-10-16 14:19:00,62.0,43.1,0.00,SSW,202,2.0,7.0,50,0.00,,,0.00,Weather View 32 v70,2013-10-16 18:19:00,
2013-10-16 14:24:00,61.8,44.0,0.00,NW,315,2.0,7.0,52,0.00,,,0.00,Weather View 32 v70,2013-10-16 18:24:00,
2013-10-16 14:27:00,61.9,43.6,0.00,ENE,67,1.0,7.0,51,0.00,,,0.00,Weather View 32 v70,2013-10-16 18:27:00,
2013-10-16 14:32:00,62.3,43.3,0.00,SW,225,3.0,7.0,50,0.00,,,0.00,Weather View 32 v70,2013-10-16 18:32:00,
2013-10-16 14:37:00,62.6,43.7,0.00,ENE,67,2.0,7.0,50,0.00,,,0.00,Weather View 32 v70,2013-10-16 18:37:00,
2013-10-16 14:42:00,63.1,43.5,0.00,SE,135,3.0,7.0,49,0.00,,,0.00,Weather View 32 v70,2013-10-16 18:42:00,
2013-10-16 14:47:00,63.1,43.5,0.00,SSE,157,2.0,8.0,49,0.00,,,0.00,Weather View 32 v70,2013-10-16 18:47:00,
2013-10-16 14:52:00,63.3,43.7,0.00,NNW,337,2.0,8.0,49,0.00,,,0.00,Weather View 32 v70,2013-10-16 18:52:00,
2013-10-16 14:57:00,63.4,43.3,0.00,SSE,157,2.0,8.0,48,0.00,,,0.00,Weather View 32 v70,2013-10-16 18:57:00,
2013-10-16 15:02:00,63.4,43.3,0.00,SSE,157,4.0,8.0,48,0.00,,,0.00,Weather View 32 v70,2013-10-16 19:02:00,
2013-10-16 15:07:00,62.9,43.4,0.00,South,180,2.0,8.0,49,0.00,,,0.00,Weather View 32 v70,2013-10-16 19:07:00,
2013-10-16 15:12:00,62.9,43.4,0.00,South,180,1.0,8.0,49,0.00,,,0.00,Weather View 32 v70,2013-10-16 19:12:00,
2013-10-16 15:17:00,63.1,44.6,0.00,SW,225,1.0,8.0,51,0.00,,,0.00,Weather View 32 v70,2013-10-16 19:17:00,
2013-10-16 15:22:00,62.9,43.4,0.00,SW,225,4.0,8.0,49,0.00,,,0.00,Weather View 32 v70,2013-10-16 19:22:00,
2013-10-16 15:27:00,62.8,44.4,0.00,SSW,202,1.0,8.0,51,0.00,,,0.00,Weather View 32 v70,2013-10-16 19:27:00,
2013-10-16 15:32:00,62.6,43.7,0.00,South,180,1.0,8.0,50,0.00,,,0.00,Weather View 32 v70,2013-10-16 19:32:00,
2013-10-16 15:37:00,62.3,43.3,0.00,SSE,157,1.0,8.0,50,0.00,,,0.00,Weather View 32 v70,2013-10-16 19:37:00,
2013-10-16 15:42:00,62.3,43.3,0.00,NE,45,3.0,8.0,50,0.00,,,0.00,Weather View 32 v70,2013-10-16 19:42:00,
2013-10-16 15:47:00,62.3,43.9,0.00,SE,135,1.0,7.0,51,0.00,,,0.00,Weather View 32 v70,2013-10-16 19:47:00,
2013-10-16 15:52:00,62.2,43.2,0.00,SSW,202,0.0,7.0,50,0.00,,,0.00,Weather View 32 v70,2013-10-16 19:52:00,
2013-10-16 15:57:00,62.2,43.8,0.00,ESE,112,2.0,7.0,51,0.00,,,0.00,Weather View 32 v70,2013-10-16 19:57:00,
2013-10-16 16:02:00,62.4,44.5,0.00,SE,135,1.0,7.0,52,0.00,,,0.00,Weather View 32 v70,2013-10-16 20:02:00,
2013-10-16 16:07:00,62.5,44.6,0.00,NNW,337,3.0,6.0,52,0.00,,,0.00,Weather View 32 v70,2013-10-16 20:07:00,
2013-10-16 16:12:00,62.0,45.2,0.00,North,0,3.0,6.0,54,0.00,,,0.00,Weather View 32 v70,2013-10-16 20:12:00,
2013-10-16 16:17:00,61.6,45.2,0.00,SE,135,1.0,6.0,55,0.00,,,0.00,Weather View 32 v70,2013-10-16 20:17:00,
2013-10-16 16:22:00,61.4,45.0,0.00,NE,45,4.0,6.0,55,0.00,,,0.00,Weather View 32 v70,2013-10-16 20:22:00,
2013-10-16 16:27:00,61.1,44.8,0.00,SE,135,0.0,6.0,55,0.00,,,0.00,Weather View 32 v70,2013-10-16 20:27:00,
2013-10-16 16:32:00,61.0,45.2,0.00,NNE,22,2.0,6.0,56,0.00,,,0.00,Weather View 32 v70,2013-10-16 20:32:00,
2013-10-16 16:37:00,60.6,45.2,0.00,NE,45,2.0,5.0,57,0.00,,,0.00,Weather View 32 v70,2013-10-16 20:37:00,
2013-10-16 16:42:00,60.2,45.4,0.00,East,90,3.0,5.0,58,0.00,,,0.00,Weather View 32 v70,2013-10-16 20:42:00,
2013-10-16 16:47:00,59.9,45.5,0.00,NNW,337,2.0,5.0,59,0.00,,,0.00,Weather View 32 v70,2013-10-16 20:47:00,
2013-10-16 16:52:00,59.3,45.4,0.00,East,90,2.0,5.0,60,0.00,,,0.00,Weather View 32 v70,2013-10-16 20:52:00,
2013-10-16 16:57:00,59.0,45.5,0.00,East,90,4.0,6.0,61,0.00,,,0.00,Weather View 32 v70,2013-10-16 20:57:00,
2013-10-16 17:02:00,58.6,45.5,0.00,East,90,1.0,6.0,62,0.00,,,0.00,Weather View 32 v70,2013-10-16 21:02:00,
2013-10-16 17:07:00,58.2,45.2,0.00,ENE,67,1.0,6.0,62,0.00,,,0.00,Weather View 32 v70,2013-10-16 21:07:00,
2013-10-16 17:12:00,58.0,45.4,0.00,NW,315,3.0,6.0,63,0.00,,,0.00,Weather View 32 v70,2013-10-16 21:12:00,
2013-10-16 17:17:00,57.7,45.5,0.00,NNE,22,4.0,6.0,64,0.00,,,0.00,Weather View 32 v70,2013-10-16 21:17:00,
2013-10-16 17:22:00,57.4,45.3,0.00,NE,45,2.0,6.0,64,0.00,,,0.00,Weather View 32 v70,2013-10-16 21:22:00,
2013-10-16 17:27:00,57.2,45.1,0.00,NNE,22,2.0,6.0,64,0.00,,,0.00,Weather View 32 v70,2013-10-16 21:27:00,
2013-10-16 17:32:00,57.0,45.3,0.00,NNW,337,4.0,6.0,65,0.00,,,0.00,Weather View 32 v70,2013-10-16 21:32:00,
2013-10-16 17:37:00,56.8,45.1,0.00,North,0,3.0,6.0,65,0.00,,,0.00,Weather View 32 v70,2013-10-16 21:37:00,
2013-10-16 17:42:00,56.6,45.0,0.00,NE,45,3.0,6.0,65,0.00,,,0.00,Weather View 32 v70,2013-10-16 21:42:00,
2013-10-16 17:47:00,56.3,44.7,0.00,North,0,2.0,6.0,65,0.00,,,0.00,Weather View 32 v70,2013-10-16 21:47:00,
2013-10-16 17:52:00,56.1,44.5,0.00,NNE,22,3.0,6.0,65,0.00,,,0.00,Weather View 32 v70,2013-10-16 21:52:00,
2013-10-16 17:57:00,56.0,44.3,0.00,ENE,67,2.0,5.0,65,0.00,,,0.00,Weather View 32 v70,2013-10-16 21:57:00,
2013-10-16 18:02:00,55.6,44.0,0.00,SE,135,1.0,5.0,65,0.00,,,0.00,Weather View 32 v70,2013-10-16 22:02:00,
2013-10-16 18:07:00,55.4,44.2,0.00,North,0,3.0,5.0,66,0.00,,,0.00,Weather View 32 v70,2013-10-16 22:07:00,
2013-10-16 18:12:00,55.1,43.9,0.00,NE,45,2.0,5.0,66,0.00,,,0.00,Weather View 32 v70,2013-10-16 22:12:00,
2013-10-16 18:17:00,54.8,43.7,0.00,NNE,22,2.0,5.0,66,0.00,,,0.00,Weather View 32 v70,2013-10-16 22:17:00,
2013-10-16 18:22:00,54.6,43.8,0.00,East,90,2.0,5.0,67,0.00,,,0.00,Weather View 32 v70,2013-10-16 22:22:00,
2013-10-16 18:27:00,54.5,43.7,0.00,NE,45,3.0,5.0,67,0.00,,,0.00,Weather View 32 v70,2013-10-16 22:27:00,
2013-10-16 18:32:00,54.3,43.1,0.00,NNE,22,3.0,5.0,66,0.00,,,0.00,Weather View 32 v70,2013-10-16 22:32:00,
2013-10-16 18:37:00,54.2,43.0,0.00,North,0,3.0,5.0,66,0.00,,,0.00,Weather View 32 v70,2013-10-16 22:37:00,
2013-10-16 18:42:00,54.1,42.9,0.00,North,0,3.0,6.0,66,0.00,,,0.00,Weather View 32 v70,2013-10-16 22:42:00,
2013-10-16 18:47:00,54.1,43.3,0.00,East,90,2.0,6.0,67,0.00,,,0.00,Weather View 32 v70,2013-10-16 22:47:00,
2013-10-16 18:52:00,53.8,43.5,0.00,SSE,157,0.0,6.0,68,0.00,,,0.00,Weather View 32 v70,2013-10-16 22:52:00,
2013-10-16 18:57:00,53.7,42.6,0.00,SSE,157,0.0,6.0,66,0.00,,,0.00,Weather View 32 v70,2013-10-16 22:57:00,
2013-10-16 19:02:00,53.5,42.8,0.00,South,180,2.0,6.0,67,0.00,,,0.00,Weather View 32 v70,2013-10-16 23:02:00,
2013-10-16 19:07:00,53.3,42.2,0.00,SSE,157,0.0,6.0,66,0.00,,,0.00,Weather View 32 v70,2013-10-16 23:07:00,
2013-10-16 19:12:00,53.0,42.0,0.00,ENE,67,1.0,6.0,66,0.00,,,0.00,Weather View 32 v70,2013-10-16 23:12:00,
2013-10-16 19:17:00,52.8,41.7,0.00,NE,45,2.0,6.0,66,0.00,,,0.00,Weather View 32 v70,2013-10-16 23:17:00,
2013-10-16 19:22:00,52.6,41.9,0.00,ENE,67,1.0,6.0,67,0.00,,,0.00,Weather View 32 v70,2013-10-16 23:22:00,
2013-10-16 19:27:00,52.4,41.7,0.00,ENE,67,1.0,6.0,67,0.00,,,0.00,Weather View 32 v70,2013-10-16 23:27:00,
2013-10-16 19:39:00,52.3,41.6,0.00,ENE,67,0.0,6.0,67,0.00,,,0.00,Weather View 32 v70,2013-10-16 23:39:00,
2013-10-16 19:44:00,51.9,41.7,0.00,SE,135,0.0,4.0,68,0.00,,,0.00,Weather View 32 v70,2013-10-16 23:44:00,
2013-10-16 19:49:00,51.7,41.5,0.00,SE,135,1.0,4.0,68,0.00,,,0.00,Weather View 32 v70,2013-10-16 23:49:00,
2013-10-16 19:54:00,51.6,41.3,0.00,SE,135,1.0,3.0,68,0.00,,,0.00,Weather View 32 v70,2013-10-16 23:54:00,
2013-10-16 19:59:00,51.5,41.6,0.00,NE,45,1.0,2.0,69,0.00,,,0.00,Weather View 32 v70,2013-10-16 23:59:00,
2013-10-16 20:04:00,51.4,41.5,0.00,NNE,22,2.0,3.0,69,0.00,,,0.00,Weather View 32 v70,2013-10-17 00:04:00,
2013-10-16 20:09:00,51.0,41.6,0.00,East,90,0.0,3.0,70,0.00,,,0.00,Weather View 32 v70,2013-10-17 00:09:00,
2013-10-16 20:14:00,50.8,41.3,0.00,NE,45,3.0,3.0,70,0.00,,,0.00,Weather View 32 v70,2013-10-17 00:14:00,
2013-10-16 20:19:00,50.5,41.4,0.00,NNE,22,0.0,3.0,71,0.00,,,0.00,Weather View 32 v70,2013-10-17 00:19:00,
2013-10-16 20:24:00,50.2,41.2,0.00,NNE,22,0.0,3.0,71,0.00,,,0.00,Weather View 32 v70,2013-10-17 00:24:00,
2013-10-16 20:29:00,50.0,41.3,0.00,NNE,22,2.0,3.0,72,0.00,,,0.00,Weather View 32 v70,2013-10-17 00:29:00,
2013-10-16 20:34:00,49.8,41.1,0.00,NNE,22,0.0,3.0,72,0.00,,,0.00,Weather View 32 v70,2013-10-17 00:34:00,
2013-10-16 20:39:00,49.8,41.5,0.00,NE,45,0.0,3.0,73,0.00,,,0.00,Weather View 32 v70,2013-10-17 00:39:00,
2013-10-16 20:44:00,49.8,41.5,0.00,NE,45,1.0,3.0,73,0.00,,,0.00,Weather View 32 v70,2013-10-17 00:44:00,
2013-10-16 20:49:00,49.9,41.6,0.00,NE,45,1.0,3.0,73,0.00,,,0.00,Weather View 32 v70,2013-10-17 00:49:00,
2013-10-16 20:54:00,49.9,41.6,0.00,NE,45,1.0,3.0,73,0.00,,,0.00,Weather View 32 v70,2013-10-17 00:54:00,
2013-10-16 20:59:00,50.0,42.0,0.00,NE,45,0.0,3.0,74,0.00,,,0.00,Weather View 32 v70,2013-10-17 00:59:00,
2013-10-16 21:04:00,50.2,42.2,0.00,ENE,67,1.0,3.0,74,0.00,,,0.00,Weather View 32 v70,2013-10-17 01:04:00,
2013-10-16 21:09:00,50.5,42.1,0.00,ENE,67,1.0,3.0,73,0.00,,,0.00,Weather View 32 v70,2013-10-17 01:09:00,
2013-10-16 21:14:00,50.7,42.0,0.00,East,90,2.0,3.0,72,0.00,,,0.00,Weather View 32 v70,2013-10-17 01:14:00,
2013-10-16 21:19:00,50.9,42.2,0.00,SE,135,1.0,3.0,72,0.00,,,0.00,Weather View 32 v70,2013-10-17 01:19:00,
2013-10-16 21:24:00,51.0,41.9,0.00,East,90,2.0,3.0,71,0.00,,,0.00,Weather View 32 v70,2013-10-17 01:24:00,
2013-10-16 21:29:00,51.0,41.9,0.00,ENE,67,1.0,3.0,71,0.00,,,0.00,Weather View 32 v70,2013-10-17 01:29:00,
2013-10-16 21:34:00,50.9,41.8,0.00,ESE,112,1.0,3.0,71,0.00,,,0.00,Weather View 32 v70,2013-10-17 01:34:00,
2013-10-16 21:39:00,50.9,41.8,0.00,SSE,157,0.0,3.0,71,0.00,,,0.00,Weather View 32 v70,2013-10-17 01:39:00,
2013-10-16 21:44:00,50.9,41.8,0.00,SSE,157,0.0,3.0,71,0.00,,,0.00,Weather View 32 v70,2013-10-17 01:44:00,
2013-10-16 21:49:00,50.7,41.6,0.00,SSE,157,1.0,3.0,71,0.00,,,0.00,Weather View 32 v70,2013-10-17 01:49:00,
2013-10-16 21:54:00,50.7,42.0,0.00,East,90,0.0,3.0,72,0.00,,,0.00,Weather View 32 v70,2013-10-17 01:54:00,
2013-10-16 21:59:00,50.7,42.0,0.00,SE,135,0.0,3.0,72,0.00,,,0.00,Weather View 32 v70,2013-10-17 01:59:00,
2013-10-16 22:04:00,50.6,42.2,0.00,SSE,157,1.0,3.0,73,0.00,,,0.00,Weather View 32 v70,2013-10-17 02:04:00,
2013-10-16 22:09:00,50.6,42.2,0.00,ESE,112,1.0,3.0,73,0.00,,,0.00,Weather View 32 v70,2013-10-17 02:09:00,
2013-10-16 22:14:00,50.7,42.0,0.00,South,180,0.0,3.0,72,0.00,,,0.00,Weather View 32 v70,2013-10-17 02:14:00,
2013-10-16 22:19:00,50.8,42.1,0.00,East,90,2.0,3.0,72,0.00,,,0.00,Weather View 32 v70,2013-10-17 02:19:00,
2013-10-16 22:24:00,50.9,41.8,0.00,SSE,157,0.0,3.0,71,0.00,,,0.00,Weather View 32 v70,2013-10-17 02:24:00,
2013-10-16 22:29:00,51.0,41.9,0.00,SSE,157,0.0,3.0,71,0.00,,,0.00,Weather View 32 v70,2013-10-17 02:29:00,
2013-10-16 22:34:00,51.0,41.9,0.00,North,0,2.0,3.0,71,0.00,,,0.00,Weather View 32 v70,2013-10-17 02:34:00,
2013-10-16 22:39:00,51.0,41.9,0.00,SE,135,1.0,3.0,71,0.00,,,0.00,Weather View 32 v70,2013-10-17 02:39:00,
2013-10-16 22:44:00,51.0,42.3,0.00,ESE,112,2.0,3.0,72,0.00,,,0.00,Weather View 32 v70,2013-10-17 02:44:00,
2013-10-16 22:49:00,50.9,42.5,0.00,ESE,112,1.0,3.0,73,0.00,,,0.00,Weather View 32 v70,2013-10-17 02:49:00,
2013-10-16 22:54:00,50.7,42.7,0.00,South,180,0.0,3.0,74,0.00,,,0.00,Weather View 32 v70,2013-10-17 02:54:00,
2013-10-16 22:59:00,50.7,43.0,0.00,East,90,2.0,3.0,75,0.00,,,0.00,Weather View 32 v70,2013-10-17 02:59:00,
2013-10-16 23:04:00,50.6,42.9,0.00,ESE,112,1.0,3.0,75,0.00,,,0.00,Weather View 32 v70,2013-10-17 03:04:00,
2013-10-16 23:09:00,50.6,43.3,0.00,East,90,2.0,3.0,76,0.00,,,0.00,Weather View 32 v70,2013-10-17 03:09:00,
2013-10-16 23:14:00,50.5,43.2,0.00,SSE,157,3.0,5.0,76,0.00,,,0.00,Weather View 32 v70,2013-10-17 03:14:00,
2013-10-16 23:19:00,50.2,43.3,0.00,SE,135,1.0,5.0,77,0.00,,,0.00,Weather View 32 v70,2013-10-17 03:19:00,
2013-10-16 23:24:00,50.1,43.5,0.00,South,180,1.0,5.0,78,0.00,,,0.00,Weather View 32 v70,2013-10-17 03:24:00,
2013-10-16 23:29:00,49.9,43.6,0.00,NNW,337,2.0,5.0,79,0.00,,,0.00,Weather View 32 v70,2013-10-17 03:29:00,
2013-10-16 23:34:00,49.7,43.7,0.00,SSE,157,0.0,5.0,80,0.00,,,0.00,Weather View 32 v70,2013-10-17 03:34:00,
2013-10-16 23:39:00,49.4,43.8,0.00,SSE,157,0.0,5.0,81,0.00,,,0.00,Weather View 32 v70,2013-10-17 03:39:00,
2013-10-16 23:44:00,49.3,43.7,0.00,SE,135,1.0,5.0,81,0.00,,,0.00,Weather View 32 v70,2013-10-17 03:44:00,
2013-10-16 23:49:00,49.3,43.7,0.00,SE,135,1.0,5.0,81,0.00,,,0.00,Weather View 32 v70,2013-10-17 03:49:00,
2013-10-16 23:54:00,49.2,43.6,0.00,SE,135,1.0,5.0,81,0.00,,,0.00,Weather View 32 v70,2013-10-17 03:54:00,
2013-10-16 23:59:00,49.2,43.3,0.00,SE,135,0.0,5.0,80,0.00,,,0.00,Weather View 32 v70,2013-10-17 03:59:00,